sensor_id;sensor_type;location;lat;lon;timestamp;P1;durP1;ratioP1;P2;durP2;ratioP2
64894;SDS011;51588;53.702;10.208;2023-07-29T00:01:31;2.00;;;1.67;;
64894;SDS011;51588;53.702;10.208;2023-07-29T00:03:57;1.50;;;1.40;;
64894;SDS011;51588;53.702;10.208;2023-07-29T00:06:24;1.83;;;1.73;;
64894;SDS011;51588;53.702;10.208;2023-07-29T00:08:51;1.77;;;1.67;;
64894;SDS011;51588;53.702;10.208;2023-07-29T00:11:18;1.60;;;1.50;;
64894;SDS011;51588;53.702;10.208;2023-07-29T00:13:44;1.90;;;1.80;;
64894;SDS011;51588;53.702;10.208;2023-07-29T00:16:12;2.23;;;2.03;;
64894;SDS011;51588;53.702;10.208;2023-07-29T00:18:40;2.00;;;1.80;;
64894;SDS011;51588;53.702;10.208;2023-07-29T00:21:07;1.63;;;1.53;;
64894;SDS011;51588;53.702;10.208;2023-07-29T00:23:33;1.93;;;1.73;;
64894;SDS011;51588;53.702;10.208;2023-07-29T00:26:01;1.80;;;1.70;;
64894;SDS011;51588;53.702;10.208;2023-07-29T00:28:27;1.80;;;1.70;;
64894;SDS011;51588;53.702;10.208;2023-07-29T00:30:53;1.80;;;1.70;;
64894;SDS011;51588;53.702;10.208;2023-07-29T00:33:20;1.80;;;1.70;;
64894;SDS011;51588;53.702;10.208;2023-07-29T00:35:47;1.70;;;1.57;;
64894;SDS011;51588;53.702;10.208;2023-07-29T00:38:13;2.43;;;1.93;;
64894;SDS011;51588;53.702;10.208;2023-07-29T00:40:39;1.70;;;1.60;;
64894;SDS011;51588;53.702;10.208;2023-07-29T00:43:07;2.07;;;1.87;;
64894;SDS011;51588;53.702;10.208;2023-07-29T00:45:34;1.90;;;1.80;;
64894;SDS011;51588;53.702;10.208;2023-07-29T00:48:00;2.17;;;2.00;;
64894;SDS011;51588;53.702;10.208;2023-07-29T00:50:27;1.87;;;1.77;;
64894;SDS011;51588;53.702;10.208;2023-07-29T00:52:54;2.03;;;1.93;;
64894;SDS011;51588;53.702;10.208;2023-07-29T00:55:21;2.03;;;1.83;;
64894;SDS011;51588;53.702;10.208;2023-07-29T00:57:47;1.90;;;1.80;;
64894;SDS011;51588;53.702;10.208;2023-07-29T01:00:18;2.00;;;1.90;;
64894;SDS011;51588;53.702;10.208;2023-07-29T01:02:44;2.27;;;2.07;;
64894;SDS011;51588;53.702;10.208;2023-07-29T01:05:11;2.60;;;1.93;;
64894;SDS011;51588;53.702;10.208;2023-07-29T01:07:39;2.10;;;1.90;;
64894;SDS011;51588;53.702;10.208;2023-07-29T01:10:13;2.20;;;2.00;;
64894;SDS011;51588;53.702;10.208;2023-07-29T01:12:42;1.90;;;1.80;;
64894;SDS011;51588;53.702;10.208;2023-07-29T01:15:13;1.90;;;1.80;;
64894;SDS011;51588;53.702;10.208;2023-07-29T01:17:45;2.20;;;2.00;;
64894;SDS011;51588;53.702;10.208;2023-07-29T01:20:13;2.27;;;2.07;;
64894;SDS011;51588;53.702;10.208;2023-07-29T01:22:40;2.00;;;1.90;;
64894;SDS011;51588;53.702;10.208;2023-07-29T01:25:09;2.07;;;1.77;;
64894;SDS011;51588;53.702;10.208;2023-07-29T01:27:35;3.03;;;2.20;;
64894;SDS011;51588;53.702;10.208;2023-07-29T01:30:01;2.63;;;2.37;;
64894;SDS011;51588;53.702;10.208;2023-07-29T01:32:29;1.90;;;1.80;;
64894;SDS011;51588;53.702;10.208;2023-07-29T01:35:00;2.20;;;2.00;;
64894;SDS011;51588;53.702;10.208;2023-07-29T01:37:27;2.00;;;1.80;;
64894;SDS011;51588;53.702;10.208;2023-07-29T01:39:56;1.90;;;1.80;;
64894;SDS011;51588;53.702;10.208;2023-07-29T01:42:24;2.10;;;1.90;;
64894;SDS011;51588;53.702;10.208;2023-07-29T01:44:51;2.40;;;2.20;;
64894;SDS011;51588;53.702;10.208;2023-07-29T01:47:18;2.10;;;1.90;;
64894;SDS011;51588;53.702;10.208;2023-07-29T01:49:44;1.80;;;1.70;;
64894;SDS011;51588;53.702;10.208;2023-07-29T01:52:11;2.23;;;2.00;;
64894;SDS011;51588;53.702;10.208;2023-07-29T01:54:37;2.23;;;2.00;;
64894;SDS011;51588;53.702;10.208;2023-07-29T01:57:03;2.17;;;1.83;;
64894;SDS011;51588;53.702;10.208;2023-07-29T01:59:31;1.97;;;1.77;;
64894;SDS011;51588;53.702;10.208;2023-07-29T02:01:58;2.37;;;2.13;;
64894;SDS011;51588;53.702;10.208;2023-07-29T02:04:24;2.20;;;2.00;;
64894;SDS011;51588;53.702;10.208;2023-07-29T02:06:50;2.37;;;2.17;;
64894;SDS011;51588;53.702;10.208;2023-07-29T02:09:17;2.07;;;1.90;;
64894;SDS011;51588;53.702;10.208;2023-07-29T02:11:43;2.13;;;1.93;;
64894;SDS011;51588;53.702;10.208;2023-07-29T02:14:10;2.37;;;2.10;;
64894;SDS011;51588;53.702;10.208;2023-07-29T02:16:37;2.40;;;2.20;;
64894;SDS011;51588;53.702;10.208;2023-07-29T02:19:04;2.50;;;2.30;;
64894;SDS011;51588;53.702;10.208;2023-07-29T02:21:30;2.70;;;2.30;;
64894;SDS011;51588;53.702;10.208;2023-07-29T02:23:57;1.97;;;1.87;;
64894;SDS011;51588;53.702;10.208;2023-07-29T02:26:23;2.27;;;2.07;;
64894;SDS011;51588;53.702;10.208;2023-07-29T02:28:49;2.23;;;2.03;;
64894;SDS011;51588;53.702;10.208;2023-07-29T02:31:16;2.00;;;1.90;;
64894;SDS011;51588;53.702;10.208;2023-07-29T02:33:44;2.10;;;1.90;;
64894;SDS011;51588;53.702;10.208;2023-07-29T02:36:11;2.40;;;2.20;;
64894;SDS011;51588;53.702;10.208;2023-07-29T02:38:38;2.20;;;2.00;;
64894;SDS011;51588;53.702;10.208;2023-07-29T02:41:04;2.30;;;2.10;;
64894;SDS011;51588;53.702;10.208;2023-07-29T02:43:31;2.67;;;2.20;;
64894;SDS011;51588;53.702;10.208;2023-07-29T02:45:57;2.20;;;2.00;;
64894;SDS011;51588;53.702;10.208;2023-07-29T02:48:24;2.60;;;2.40;;
64894;SDS011;51588;53.702;10.208;2023-07-29T02:50:52;2.10;;;2.00;;
64894;SDS011;51588;53.702;10.208;2023-07-29T02:53:18;2.70;;;2.50;;
64894;SDS011;51588;53.702;10.208;2023-07-29T02:55:45;2.40;;;2.20;;
64894;SDS011;51588;53.702;10.208;2023-07-29T02:58:11;2.50;;;2.30;;
64894;SDS011;51588;53.702;10.208;2023-07-29T03:00:37;3.20;;;2.90;;
64894;SDS011;51588;53.702;10.208;2023-07-29T03:03:06;2.10;;;2.00;;
64894;SDS011;51588;53.702;10.208;2023-07-29T03:05:33;2.67;;;2.47;;
64894;SDS011;51588;53.702;10.208;2023-07-29T03:08:01;2.80;;;2.60;;
64894;SDS011;51588;53.702;10.208;2023-07-29T03:10:27;2.43;;;2.23;;
64894;SDS011;51588;53.702;10.208;2023-07-29T03:12:53;3.00;;;2.77;;
64894;SDS011;51588;53.702;10.208;2023-07-29T03:15:22;2.60;;;2.40;;
64894;SDS011;51588;53.702;10.208;2023-07-29T03:17:49;2.50;;;2.30;;
64894;SDS011;51588;53.702;10.208;2023-07-29T03:20:15;2.60;;;2.40;;
64894;SDS011;51588;53.702;10.208;2023-07-29T03:22:42;2.63;;;2.43;;
64894;SDS011;51588;53.702;10.208;2023-07-29T03:25:10;2.63;;;2.43;;
64894;SDS011;51588;53.702;10.208;2023-07-29T03:27:37;2.63;;;2.40;;
64894;SDS011;51588;53.702;10.208;2023-07-29T03:30:05;2.50;;;2.30;;
64894;SDS011;51588;53.702;10.208;2023-07-29T03:32:32;2.67;;;2.47;;
64894;SDS011;51588;53.702;10.208;2023-07-29T03:34:58;2.70;;;2.30;;
64894;SDS011;51588;53.702;10.208;2023-07-29T03:37:25;2.70;;;2.23;;
64894;SDS011;51588;53.702;10.208;2023-07-29T03:39:51;3.23;;;2.93;;
64894;SDS011;51588;53.702;10.208;2023-07-29T03:42:19;2.50;;;2.30;;
64894;SDS011;51588;53.702;10.208;2023-07-29T03:44:45;2.50;;;2.30;;
64894;SDS011;51588;53.702;10.208;2023-07-29T03:47:12;4.80;;;2.57;;
64894;SDS011;51588;53.702;10.208;2023-07-29T03:49:38;2.63;;;2.43;;
64894;SDS011;51588;53.702;10.208;2023-07-29T03:52:05;2.57;;;2.37;;
64894;SDS011;51588;53.702;10.208;2023-07-29T03:54:31;2.50;;;2.30;;
64894;SDS011;51588;53.702;10.208;2023-07-29T03:56:58;2.80;;;2.60;;
64894;SDS011;51588;53.702;10.208;2023-07-29T03:59:25;3.17;;;2.87;;
64894;SDS011;51588;53.702;10.208;2023-07-29T04:01:52;2.60;;;2.40;;
64894;SDS011;51588;53.702;10.208;2023-07-29T04:04:18;2.63;;;2.43;;
64894;SDS011;51588;53.702;10.208;2023-07-29T04:06:45;2.53;;;2.33;;
64894;SDS011;51588;53.702;10.208;2023-07-29T04:09:12;2.70;;;2.50;;
64894;SDS011;51588;53.702;10.208;2023-07-29T04:11:38;2.80;;;2.60;;
64894;SDS011;51588;53.702;10.208;2023-07-29T04:14:05;3.00;;;2.80;;
64894;SDS011;51588;53.702;10.208;2023-07-29T04:16:32;2.83;;;2.60;;
64894;SDS011;51588;53.702;10.208;2023-07-29T04:18:59;3.80;;;2.70;;
64894;SDS011;51588;53.702;10.208;2023-07-29T04:21:25;2.80;;;2.60;;
64894;SDS011;51588;53.702;10.208;2023-07-29T04:23:51;2.90;;;2.70;;
64894;SDS011;51588;53.702;10.208;2023-07-29T04:26:18;3.20;;;2.90;;
64894;SDS011;51588;53.702;10.208;2023-07-29T04:28:44;3.20;;;2.90;;
64894;SDS011;51588;53.702;10.208;2023-07-29T04:31:10;3.07;;;2.80;;
64894;SDS011;51588;53.702;10.208;2023-07-29T04:33:38;3.60;;;3.30;;
64894;SDS011;51588;53.702;10.208;2023-07-29T04:36:04;3.47;;;3.17;;
64894;SDS011;51588;53.702;10.208;2023-07-29T04:38:32;3.70;;;3.40;;
64894;SDS011;51588;53.702;10.208;2023-07-29T04:40:58;3.80;;;3.50;;
64894;SDS011;51588;53.702;10.208;2023-07-29T04:43:26;4.20;;;3.80;;
64894;SDS011;51588;53.702;10.208;2023-07-29T04:45:53;4.50;;;4.10;;
64894;SDS011;51588;53.702;10.208;2023-07-29T04:48:19;4.63;;;3.90;;
64894;SDS011;51588;53.702;10.208;2023-07-29T04:50:47;4.80;;;4.40;;
64894;SDS011;51588;53.702;10.208;2023-07-29T04:53:13;5.00;;;4.10;;
64894;SDS011;51588;53.702;10.208;2023-07-29T04:55:41;5.40;;;4.90;;
64894;SDS011;51588;53.702;10.208;2023-07-29T04:58:07;6.47;;;4.50;;
64894;SDS011;51588;53.702;10.208;2023-07-29T05:00:33;5.53;;;5.03;;
64894;SDS011;51588;53.702;10.208;2023-07-29T05:03:00;5.27;;;4.77;;
64894;SDS011;51588;53.702;10.208;2023-07-29T05:05:27;6.10;;;5.47;;
64894;SDS011;51588;53.702;10.208;2023-07-29T05:07:55;6.60;;;5.90;;
64894;SDS011;51588;53.702;10.208;2023-07-29T05:10:21;6.17;;;5.57;;
64894;SDS011;51588;53.702;10.208;2023-07-29T05:12:47;6.27;;;5.23;;
64894;SDS011;51588;53.702;10.208;2023-07-29T05:15:14;6.17;;;5.57;;
64894;SDS011;51588;53.702;10.208;2023-07-29T05:17:40;6.80;;;6.07;;
64894;SDS011;51588;53.702;10.208;2023-07-29T05:20:07;7.00;;;6.07;;
64894;SDS011;51588;53.702;10.208;2023-07-29T05:22:34;7.20;;;6.50;;
64894;SDS011;51588;53.702;10.208;2023-07-29T05:25:01;6.90;;;6.20;;
64894;SDS011;51588;53.702;10.208;2023-07-29T05:27:28;8.17;;;7.23;;
64894;SDS011;51588;53.702;10.208;2023-07-29T05:29:54;6.23;;;5.63;;
64894;SDS011;51588;53.702;10.208;2023-07-29T05:32:21;6.50;;;5.87;;
64894;SDS011;51588;53.702;10.208;2023-07-29T05:34:47;7.80;;;6.47;;
64894;SDS011;51588;53.702;10.208;2023-07-29T05:37:13;7.00;;;6.30;;
64894;SDS011;51588;53.702;10.208;2023-07-29T05:39:40;6.87;;;6.20;;
64894;SDS011;51588;53.702;10.208;2023-07-29T05:42:07;6.60;;;5.90;;
64894;SDS011;51588;53.702;10.208;2023-07-29T05:44:34;6.50;;;5.90;;
64894;SDS011;51588;53.702;10.208;2023-07-29T05:47:01;6.53;;;5.90;;
64894;SDS011;51588;53.702;10.208;2023-07-29T05:49:27;7.20;;;6.50;;
64894;SDS011;51588;53.702;10.208;2023-07-29T05:51:54;7.67;;;6.90;;
64894;SDS011;51588;53.702;10.208;2023-07-29T05:54:20;8.03;;;7.23;;
64894;SDS011;51588;53.702;10.208;2023-07-29T05:56:46;7.10;;;6.40;;
64894;SDS011;51588;53.702;10.208;2023-07-29T05:59:14;7.00;;;6.30;;
64894;SDS011;51588;53.702;10.208;2023-07-29T06:01:41;6.93;;;6.23;;
64894;SDS011;51588;53.702;10.208;2023-07-29T06:04:07;7.07;;;6.37;;
64894;SDS011;51588;53.702;10.208;2023-07-29T06:06:33;7.97;;;7.17;;
64894;SDS011;51588;53.702;10.208;2023-07-29T06:09:00;7.20;;;6.50;;
64894;SDS011;51588;53.702;10.208;2023-07-29T06:11:26;7.40;;;6.70;;
64894;SDS011;51588;53.702;10.208;2023-07-29T06:13:52;5.63;;;5.13;;
64894;SDS011;51588;53.702;10.208;2023-07-29T06:16:20;7.23;;;6.50;;
64894;SDS011;51588;53.702;10.208;2023-07-29T06:18:46;8.27;;;7.40;;
64894;SDS011;51588;53.702;10.208;2023-07-29T06:21:13;7.80;;;7.07;;
64894;SDS011;51588;53.702;10.208;2023-07-29T06:23:42;6.57;;;5.90;;
64894;SDS011;51588;53.702;10.208;2023-07-29T06:26:08;6.90;;;6.27;;
64894;SDS011;51588;53.702;10.208;2023-07-29T06:28:34;7.30;;;6.60;;
64894;SDS011;51588;53.702;10.208;2023-07-29T06:31:01;8.00;;;7.20;;
64894;SDS011;51588;53.702;10.208;2023-07-29T06:33:28;6.00;;;5.43;;
64894;SDS011;51588;53.702;10.208;2023-07-29T06:35:55;7.40;;;6.70;;
64894;SDS011;51588;53.702;10.208;2023-07-29T06:38:21;6.30;;;5.70;;
64894;SDS011;51588;53.702;10.208;2023-07-29T06:40:48;5.80;;;5.20;;
64894;SDS011;51588;53.702;10.208;2023-07-29T06:43:14;7.33;;;6.63;;
64894;SDS011;51588;53.702;10.208;2023-07-29T06:45:41;6.00;;;5.47;;
64894;SDS011;51588;53.702;10.208;2023-07-29T06:48:07;6.00;;;5.43;;
64894;SDS011;51588;53.702;10.208;2023-07-29T06:50:35;5.77;;;5.27;;
64894;SDS011;51588;53.702;10.208;2023-07-29T06:53:01;6.50;;;5.90;;
64894;SDS011;51588;53.702;10.208;2023-07-29T06:55:28;6.10;;;5.50;;
64894;SDS011;51588;53.702;10.208;2023-07-29T06:57:54;6.30;;;5.70;;
64894;SDS011;51588;53.702;10.208;2023-07-29T07:00:20;5.70;;;5.20;;
64894;SDS011;51588;53.702;10.208;2023-07-29T07:02:47;6.00;;;5.40;;
64894;SDS011;51588;53.702;10.208;2023-07-29T07:05:13;5.57;;;5.07;;
64894;SDS011;51588;53.702;10.208;2023-07-29T07:07:41;5.80;;;5.30;;
64894;SDS011;51588;53.702;10.208;2023-07-29T07:10:07;7.00;;;6.20;;
64894;SDS011;51588;53.702;10.208;2023-07-29T07:12:34;6.47;;;5.87;;
64894;SDS011;51588;53.702;10.208;2023-07-29T07:15:00;6.83;;;6.23;;
64894;SDS011;51588;53.702;10.208;2023-07-29T07:17:26;6.80;;;6.10;;
64894;SDS011;51588;53.702;10.208;2023-07-29T07:19:53;6.50;;;5.77;;
64894;SDS011;51588;53.702;10.208;2023-07-29T07:22:19;6.17;;;5.57;;
64894;SDS011;51588;53.702;10.208;2023-07-29T07:24:47;6.57;;;5.97;;
64894;SDS011;51588;53.702;10.208;2023-07-29T07:27:13;7.50;;;6.70;;
64894;SDS011;51588;53.702;10.208;2023-07-29T07:29:40;6.60;;;5.90;;
64894;SDS011;51588;53.702;10.208;2023-07-29T07:32:06;6.80;;;6.20;;
64894;SDS011;51588;53.702;10.208;2023-07-29T07:34:33;7.30;;;6.60;;
64894;SDS011;51588;53.702;10.208;2023-07-29T07:36:59;7.30;;;6.60;;
64894;SDS011;51588;53.702;10.208;2023-07-29T07:39:26;7.60;;;6.80;;
64894;SDS011;51588;53.702;10.208;2023-07-29T07:41:54;7.17;;;6.50;;
64894;SDS011;51588;53.702;10.208;2023-07-29T07:44:20;7.50;;;6.70;;
64894;SDS011;51588;53.702;10.208;2023-07-29T07:46:46;7.80;;;7.10;;
64894;SDS011;51588;53.702;10.208;2023-07-29T07:49:13;8.23;;;7.43;;
64894;SDS011;51588;53.702;10.208;2023-07-29T07:51:39;7.80;;;7.00;;
64894;SDS011;51588;53.702;10.208;2023-07-29T07:54:06;8.33;;;7.53;;
64894;SDS011;51588;53.702;10.208;2023-07-29T07:56:32;9.00;;;7.63;;
64894;SDS011;51588;53.702;10.208;2023-07-29T07:59:00;8.23;;;7.30;;
64894;SDS011;51588;53.702;10.208;2023-07-29T08:01:26;8.57;;;7.77;;
64894;SDS011;51588;53.702;10.208;2023-07-29T08:03:52;9.30;;;8.40;;
64894;SDS011;51588;53.702;10.208;2023-07-29T08:06:19;9.57;;;8.67;;
64894;SDS011;51588;53.702;10.208;2023-07-29T08:08:45;9.00;;;8.20;;
64894;SDS011;51588;53.702;10.208;2023-07-29T08:11:12;9.10;;;8.20;;
64894;SDS011;51588;53.702;10.208;2023-07-29T08:13:38;8.90;;;8.00;;
64894;SDS011;51588;53.702;10.208;2023-07-29T08:16:06;9.30;;;8.40;;
64894;SDS011;51588;53.702;10.208;2023-07-29T08:18:32;8.90;;;8.00;;
64894;SDS011;51588;53.702;10.208;2023-07-29T08:20:59;8.83;;;7.97;;
64894;SDS011;51588;53.702;10.208;2023-07-29T08:23:28;9.47;;;8.57;;
64894;SDS011;51588;53.702;10.208;2023-07-29T08:25:55;10.43;;;9.33;;
64894;SDS011;51588;53.702;10.208;2023-07-29T08:28:26;8.90;;;8.00;;
64894;SDS011;51588;53.702;10.208;2023-07-29T08:30:52;9.63;;;8.70;;
64894;SDS011;51588;53.702;10.208;2023-07-29T08:33:20;9.70;;;8.80;;
64894;SDS011;51588;53.702;10.208;2023-07-29T08:35:46;9.70;;;8.80;;
64894;SDS011;51588;53.702;10.208;2023-07-29T08:38:13;8.87;;;7.97;;
64894;SDS011;51588;53.702;10.208;2023-07-29T08:40:41;9.37;;;8.47;;
64894;SDS011;51588;53.702;10.208;2023-07-29T08:43:08;9.63;;;8.70;;
64894;SDS011;51588;53.702;10.208;2023-07-29T08:45:35;9.17;;;8.27;;
64894;SDS011;51588;53.702;10.208;2023-07-29T08:48:03;8.97;;;8.13;;
64894;SDS011;51588;53.702;10.208;2023-07-29T08:50:32;9.07;;;8.27;;
64894;SDS011;51588;53.702;10.208;2023-07-29T08:52:59;9.33;;;8.43;;
64894;SDS011;51588;53.702;10.208;2023-07-29T08:55:26;9.00;;;8.20;;
64894;SDS011;51588;53.702;10.208;2023-07-29T08:57:52;9.50;;;8.60;;
64894;SDS011;51588;53.702;10.208;2023-07-29T09:00:19;8.63;;;7.83;;
64894;SDS011;51588;53.702;10.208;2023-07-29T09:02:46;8.60;;;7.80;;
64894;SDS011;51588;53.702;10.208;2023-07-29T09:05:13;9.30;;;8.40;;
64894;SDS011;51588;53.702;10.208;2023-07-29T09:07:40;9.60;;;8.67;;
64894;SDS011;51588;53.702;10.208;2023-07-29T09:10:08;8.13;;;7.33;;
64894;SDS011;51588;53.702;10.208;2023-07-29T09:12:35;9.03;;;8.17;;
64894;SDS011;51588;53.702;10.208;2023-07-29T09:15:02;8.50;;;7.70;;
64894;SDS011;51588;53.702;10.208;2023-07-29T09:17:30;9.07;;;8.17;;
64894;SDS011;51588;53.702;10.208;2023-07-29T09:19:57;9.37;;;8.13;;
64894;SDS011;51588;53.702;10.208;2023-07-29T09:22:23;9.70;;;8.70;;
64894;SDS011;51588;53.702;10.208;2023-07-29T09:24:51;8.50;;;7.70;;
64894;SDS011;51588;53.702;10.208;2023-07-29T09:27:24;9.70;;;8.70;;
64894;SDS011;51588;53.702;10.208;2023-07-29T09:29:51;8.97;;;8.17;;
64894;SDS011;51588;53.702;10.208;2023-07-29T09:32:18;9.07;;;8.17;;
64894;SDS011;51588;53.702;10.208;2023-07-29T09:34:45;8.60;;;7.80;;
64894;SDS011;51588;53.702;10.208;2023-07-29T09:37:15;9.20;;;8.30;;
64894;SDS011;51588;53.702;10.208;2023-07-29T09:39:43;8.97;;;8.07;;
64894;SDS011;51588;53.702;10.208;2023-07-29T09:42:12;8.97;;;8.13;;
64894;SDS011;51588;53.702;10.208;2023-07-29T09:44:42;9.70;;;8.70;;
64894;SDS011;51588;53.702;10.208;2023-07-29T09:47:08;8.90;;;8.10;;
64894;SDS011;51588;53.702;10.208;2023-07-29T09:49:34;9.47;;;8.60;;
64894;SDS011;51588;53.702;10.208;2023-07-29T09:52:01;8.17;;;7.37;;
64894;SDS011;51588;53.702;10.208;2023-07-29T09:54:29;10.67;;;7.97;;
64894;SDS011;51588;53.702;10.208;2023-07-29T09:56:56;8.50;;;7.70;;
64894;SDS011;51588;53.702;10.208;2023-07-29T09:59:24;9.03;;;8.13;;
64894;SDS011;51588;53.702;10.208;2023-07-29T10:01:50;8.30;;;7.47;;
64894;SDS011;51588;53.702;10.208;2023-07-29T10:04:17;8.70;;;7.80;;
64894;SDS011;51588;53.702;10.208;2023-07-29T10:06:43;8.90;;;8.00;;
64894;SDS011;51588;53.702;10.208;2023-07-29T10:09:10;8.50;;;7.70;;
64894;SDS011;51588;53.702;10.208;2023-07-29T10:11:37;9.17;;;8.27;;
64894;SDS011;51588;53.702;10.208;2023-07-29T10:14:03;8.77;;;7.87;;
64894;SDS011;51588;53.702;10.208;2023-07-29T10:16:31;8.50;;;7.70;;
64894;SDS011;51588;53.702;10.208;2023-07-29T10:18:58;8.80;;;7.97;;
64894;SDS011;51588;53.702;10.208;2023-07-29T10:21:25;8.80;;;7.90;;
64894;SDS011;51588;53.702;10.208;2023-07-29T10:23:52;9.10;;;8.20;;
64894;SDS011;51588;53.702;10.208;2023-07-29T10:26:19;8.80;;;7.90;;
64894;SDS011;51588;53.702;10.208;2023-07-29T10:28:46;7.97;;;7.27;;
64894;SDS011;51588;53.702;10.208;2023-07-29T10:31:14;8.43;;;7.53;;
64894;SDS011;51588;53.702;10.208;2023-07-29T10:33:42;8.00;;;7.20;;
64894;SDS011;51588;53.702;10.208;2023-07-29T10:36:09;7.83;;;7.03;;
64894;SDS011;51588;53.702;10.208;2023-07-29T10:38:36;7.97;;;7.27;;
64894;SDS011;51588;53.702;10.208;2023-07-29T10:41:03;8.27;;;7.47;;
64894;SDS011;51588;53.702;10.208;2023-07-29T10:43:31;8.10;;;7.30;;
64894;SDS011;51588;53.702;10.208;2023-07-29T10:45:58;7.83;;;7.10;;
64894;SDS011;51588;53.702;10.208;2023-07-29T10:48:43;7.73;;;7.03;;
64894;SDS011;51588;53.702;10.208;2023-07-29T10:53:54;7.87;;;7.10;;
64894;SDS011;51588;53.702;10.208;2023-07-29T10:56:24;7.70;;;7.00;;
64894;SDS011;51588;53.702;10.208;2023-07-29T10:58:51;7.93;;;7.13;;
64894;SDS011;51588;53.702;10.208;2023-07-29T11:01:26;7.17;;;6.53;;
64894;SDS011;51588;53.702;10.208;2023-07-29T11:04:02;7.30;;;6.70;;
64894;SDS011;51588;53.702;10.208;2023-07-29T11:09:38;6.83;;;6.23;;
64894;SDS011;51588;53.702;10.208;2023-07-29T11:12:05;7.03;;;6.43;;
64894;SDS011;51588;53.702;10.208;2023-07-29T11:14:31;7.00;;;6.40;;
64894;SDS011;51588;53.702;10.208;2023-07-29T11:16:58;7.10;;;6.50;;
64894;SDS011;51588;53.702;10.208;2023-07-29T11:19:26;7.13;;;6.43;;
64894;SDS011;51588;53.702;10.208;2023-07-29T11:21:52;6.40;;;5.83;;
64894;SDS011;51588;53.702;10.208;2023-07-29T11:24:19;6.50;;;5.90;;
64894;SDS011;51588;53.702;10.208;2023-07-29T11:26:46;6.20;;;5.60;;
64894;SDS011;51588;53.702;10.208;2023-07-29T11:29:12;6.63;;;6.03;;
64894;SDS011;51588;53.702;10.208;2023-07-29T11:31:39;6.63;;;6.03;;
64894;SDS011;51588;53.702;10.208;2023-07-29T11:34:06;6.80;;;6.20;;
64894;SDS011;51588;53.702;10.208;2023-07-29T11:36:34;6.37;;;5.70;;
64894;SDS011;51588;53.702;10.208;2023-07-29T11:39:08;6.33;;;5.73;;
64894;SDS011;51588;53.702;10.208;2023-07-29T11:41:35;7.10;;;6.43;;
64894;SDS011;51588;53.702;10.208;2023-07-29T11:44:01;6.07;;;5.57;;
64894;SDS011;51588;53.702;10.208;2023-07-29T11:46:27;6.90;;;6.30;;
64894;SDS011;51588;53.702;10.208;2023-07-29T11:48:54;5.90;;;5.40;;
64894;SDS011;51588;53.702;10.208;2023-07-29T11:51:20;6.10;;;5.60;;
64894;SDS011;51588;53.702;10.208;2023-07-29T11:53:49;6.30;;;5.70;;
64894;SDS011;51588;53.702;10.208;2023-07-29T11:56:15;6.67;;;6.07;;
64894;SDS011;51588;53.702;10.208;2023-07-29T11:58:42;6.30;;;5.70;;
64894;SDS011;51588;53.702;10.208;2023-07-29T12:01:09;6.90;;;6.20;;
64894;SDS011;51588;53.702;10.208;2023-07-29T12:03:36;6.20;;;5.67;;
64894;SDS011;51588;53.702;10.208;2023-07-29T12:06:02;6.10;;;5.50;;
64894;SDS011;51588;53.702;10.208;2023-07-29T12:08:28;5.80;;;5.30;;
64894;SDS011;51588;53.702;10.208;2023-07-29T12:10:56;5.23;;;4.77;;
64894;SDS011;51588;53.702;10.208;2023-07-29T12:13:23;6.13;;;5.53;;
64894;SDS011;51588;53.702;10.208;2023-07-29T12:15:50;6.23;;;5.63;;
64894;SDS011;51588;53.702;10.208;2023-07-29T12:18:16;5.87;;;5.20;;
64894;SDS011;51588;53.702;10.208;2023-07-29T12:20:42;5.67;;;5.20;;
64894;SDS011;51588;53.702;10.208;2023-07-29T12:23:09;5.70;;;5.20;;
64894;SDS011;51588;53.702;10.208;2023-07-29T12:25:35;6.00;;;5.50;;
64894;SDS011;51588;53.702;10.208;2023-07-29T12:28:04;6.00;;;5.40;;
64894;SDS011;51588;53.702;10.208;2023-07-29T12:30:31;5.20;;;4.70;;
64894;SDS011;51588;53.702;10.208;2023-07-29T12:32:58;5.23;;;4.73;;
64894;SDS011;51588;53.702;10.208;2023-07-29T12:35:24;5.40;;;4.90;;
64894;SDS011;51588;53.702;10.208;2023-07-29T12:37:59;6.07;;;5.57;;
64894;SDS011;51588;53.702;10.208;2023-07-29T12:40:26;5.30;;;4.80;;
64894;SDS011;51588;53.702;10.208;2023-07-29T12:42:52;5.60;;;4.97;;
64894;SDS011;51588;53.702;10.208;2023-07-29T12:45:20;5.40;;;4.90;;
64894;SDS011;51588;53.702;10.208;2023-07-29T12:47:48;5.43;;;4.93;;
64894;SDS011;51588;53.702;10.208;2023-07-29T12:50:14;5.53;;;5.03;;
64894;SDS011;51588;53.702;10.208;2023-07-29T12:52:40;5.63;;;5.13;;
64894;SDS011;51588;53.702;10.208;2023-07-29T12:55:07;5.10;;;4.67;;
64894;SDS011;51588;53.702;10.208;2023-07-29T12:57:38;5.77;;;5.10;;
64894;SDS011;51588;53.702;10.208;2023-07-29T13:00:04;4.87;;;4.47;;
64894;SDS011;51588;53.702;10.208;2023-07-29T13:02:32;5.20;;;4.70;;
64894;SDS011;51588;53.702;10.208;2023-07-29T13:04:59;4.60;;;4.20;;
64894;SDS011;51588;53.702;10.208;2023-07-29T13:07:25;4.80;;;4.40;;
64894;SDS011;51588;53.702;10.208;2023-07-29T13:09:51;4.73;;;4.30;;
64894;SDS011;51588;53.702;10.208;2023-07-29T13:12:18;5.23;;;4.73;;
64894;SDS011;51588;53.702;10.208;2023-07-29T13:14:44;4.63;;;4.23;;
64894;SDS011;51588;53.702;10.208;2023-07-29T13:17:11;6.13;;;5.53;;
64894;SDS011;51588;53.702;10.208;2023-07-29T13:19:38;4.73;;;4.33;;
64894;SDS011;51588;53.702;10.208;2023-07-29T13:22:05;4.73;;;4.33;;
64894;SDS011;51588;53.702;10.208;2023-07-29T13:24:31;4.83;;;4.27;;
64894;SDS011;51588;53.702;10.208;2023-07-29T13:26:58;4.57;;;4.17;;
64894;SDS011;51588;53.702;10.208;2023-07-29T13:29:24;4.70;;;4.30;;
64894;SDS011;51588;53.702;10.208;2023-07-29T13:31:51;4.40;;;4.00;;
64894;SDS011;51588;53.702;10.208;2023-07-29T13:34:17;4.43;;;4.03;;
64894;SDS011;51588;53.702;10.208;2023-07-29T13:36:45;4.77;;;4.37;;
64894;SDS011;51588;53.702;10.208;2023-07-29T13:39:11;4.87;;;4.47;;
64894;SDS011;51588;53.702;10.208;2023-07-29T13:41:37;4.40;;;4.00;;
64894;SDS011;51588;53.702;10.208;2023-07-29T13:44:04;4.87;;;4.20;;
64894;SDS011;51588;53.702;10.208;2023-07-29T13:46:30;4.63;;;4.23;;
64894;SDS011;51588;53.702;10.208;2023-07-29T13:48:57;4.60;;;4.20;;
64894;SDS011;51588;53.702;10.208;2023-07-29T13:51:23;4.10;;;3.70;;
64894;SDS011;51588;53.702;10.208;2023-07-29T13:53:51;4.63;;;3.67;;
64894;SDS011;51588;53.702;10.208;2023-07-29T13:56:17;4.30;;;3.90;;
64894;SDS011;51588;53.702;10.208;2023-07-29T13:58:44;3.97;;;3.67;;
64894;SDS011;51588;53.702;10.208;2023-07-29T14:01:10;4.60;;;4.13;;
64894;SDS011;51588;53.702;10.208;2023-07-29T14:03:36;4.37;;;3.97;;
64894;SDS011;51588;53.702;10.208;2023-07-29T14:06:03;4.40;;;4.00;;
64894;SDS011;51588;53.702;10.208;2023-07-29T14:08:29;4.63;;;4.20;;
64894;SDS011;51588;53.702;10.208;2023-07-29T14:10:57;4.10;;;3.80;;
64894;SDS011;51588;53.702;10.208;2023-07-29T14:13:23;4.23;;;3.87;;
64894;SDS011;51588;53.702;10.208;2023-07-29T14:15:50;3.90;;;3.50;;
64894;SDS011;51588;53.702;10.208;2023-07-29T14:18:16;4.10;;;3.80;;
64894;SDS011;51588;53.702;10.208;2023-07-29T14:20:43;3.77;;;3.47;;
64894;SDS011;51588;53.702;10.208;2023-07-29T14:23:09;4.33;;;3.90;;
64894;SDS011;51588;53.702;10.208;2023-07-29T14:25:36;4.37;;;3.97;;
64894;SDS011;51588;53.702;10.208;2023-07-29T14:28:03;4.47;;;4.03;;
64894;SDS011;51588;53.702;10.208;2023-07-29T14:30:30;3.60;;;3.30;;
64894;SDS011;51588;53.702;10.208;2023-07-29T14:32:56;3.60;;;3.30;;
64894;SDS011;51588;53.702;10.208;2023-07-29T14:35:23;3.80;;;3.50;;
64894;SDS011;51588;53.702;10.208;2023-07-29T14:37:49;3.40;;;3.10;;